This is the latest recevied weather packets stored in our database for station/object PE1BMM-13. If no packets are shown the sender has not sent any weather packets the latest 10 day(s).
| Time | Temp. | Humidity | Pressure | Rain* | Wind** | Luminosity | Snow |
|---|---|---|---|---|---|---|---|
| 1777348779 | 8.33° C | 88% | 1023.6 hPa | 0 mm | - | - | - |
| 1777346654 | 7.78° C | 89% | 1023.8 hPa | 0 mm | - | - | - |
| 1777339770 | 8.33° C | 87% | 1024.5 hPa | 0 mm | - | - | - |
| 1777334039 | 8.33° C | 86% | 1024.4 hPa | 0 mm | - | - | - |
| 1777325642 | 9.44° C | 84% | 1023.9 hPa | 0 mm | - | - | - |
| 1777319961 | 10° C | 81% | 1023.8 hPa | 0 mm | - | - | - |
| 1777316957 | 11.11° C | 80% | 1023.7 hPa | 0 mm | - | - | - |
| 1777306741 | 14.44° C | 64% | 1023.5 hPa | 0 mm | - | - | - |
| 1777302539 | 13.33° C | 65% | 1024 hPa | 0 mm | - | - | - |
| 1777296527 | 13.33° C | 53% | 1024.8 hPa | 0 mm | - | - | - |
| 1777296484 | 13.33° C | 55% | 1024.8 hPa | 0 mm | - | - | - |
| 1777289926 | 12.78° C | 63% | 1025.3 hPa | 0 mm | - | - | - |
| 1777288124 | 12.78° C | 60% | 1025.3 hPa | 0 mm | - | - | - |
| 1777287526 | 12.78° C | 60% | 1025.4 hPa | 0 mm | - | - | - |
| 1777281515 | 11.11° C | 71% | 1025.7 hPa | 0 mm | - | - | - |
| 1777280313 | 10° C | 75% | 1025.7 hPa | 0 mm | - | - | - |
| 1777277913 | 9.44° C | 77% | 1025.7 hPa | 0 mm | - | - | - |
| 1777277592 | 8.89° C | 80% | 1025.7 hPa | 0 mm | - | - | - |
| 1777276716 | 8.89° C | 80% | 1025.7 hPa | 0 mm | - | - | - |
| 1777271304 | 6.67° C | 90% | 1026.1 hPa | 0 mm | - | - | - |
| 1777270706 | 6.67° C | 90% | 1026.1 hPa | 0 mm | - | - | - |
| 1777267706 | 6.11° C | 89% | 1025.8 hPa | 0 mm | - | - | - |
| 1777264101 | 5° C | 89% | 1025.9 hPa | 0 mm | - | - | - |
| 1777264060 | 5° C | 89% | 1025.8 hPa | 0 mm | - | - | - |
| 1777261698 | 5° C | 88% | 1025.7 hPa | 0 mm | - | - | - |
* Rain latest hour (hover to see other rain measurements)
** Current wind speed in m/s (hover to see current wind gust speed)